createdAt,value
2018-03-23T00:01:01.285Z,92.70
2018-03-23T00:03:29.040Z,91.90
2018-03-23T00:05:56.797Z,92.00
2018-03-23T00:08:25.384Z,93.90
2018-03-23T00:10:53.143Z,93.90
2018-03-23T00:13:20.901Z,92.70
2018-03-23T00:15:48.716Z,92.80
2018-03-23T00:18:16.486Z,93.60
2018-03-23T00:20:44.246Z,95.70
2018-03-23T00:23:12.071Z,95.00
2018-03-23T00:25:39.837Z,95.40
2018-03-23T00:28:07.587Z,95.10
2018-03-23T00:30:35.391Z,94.80
2018-03-23T00:33:03.146Z,94.10
2018-03-23T00:35:31.666Z,94.20
2018-03-23T00:37:59.480Z,94.20
2018-03-23T00:40:28.009Z,93.00
2018-03-23T00:42:55.783Z,93.00
2018-03-23T00:45:23.596Z,93.30
2018-03-23T00:47:51.350Z,93.30
2018-03-23T00:50:19.875Z,95.10
2018-03-23T00:52:47.684Z,95.10
2018-03-23T00:55:16.207Z,94.50
2018-03-23T00:57:43.962Z,94.50
2018-03-23T01:00:11.792Z,96.50
2018-03-23T01:02:40.315Z,96.70
2018-03-23T01:05:08.071Z,96.60
2018-03-23T01:07:35.883Z,96.70
2018-03-23T01:10:04.428Z,97.70
2018-03-23T01:12:32.178Z,97.40
2018-03-23T01:14:59.985Z,98.60
2018-03-23T01:17:27.743Z,98.90
2018-03-23T01:19:55.506Z,97.90
2018-03-23T01:22:23.319Z,96.90
2018-03-23T01:24:51.078Z,96.30
2018-03-23T01:27:18.825Z,97.40
2018-03-23T01:29:46.626Z,95.60
2018-03-23T01:32:14.380Z,96.30
2018-03-23T01:34:42.138Z,97.50
2018-03-23T01:37:10.001Z,96.70
2018-03-23T01:39:37.754Z,96.80
2018-03-23T01:42:05.511Z,95.80
2018-03-23T01:44:33.332Z,95.40
2018-03-23T01:47:01.102Z,95.40
2018-03-23T01:49:29.623Z,97.10
2018-03-23T01:51:57.471Z,97.10
2018-03-23T01:54:25.225Z,98.40
2018-03-23T01:56:52.975Z,99.20
2018-03-23T01:59:21.551Z,98.90
2018-03-23T02:01:49.323Z,98.80
2018-03-23T02:04:17.846Z,99.40
2018-03-23T02:06:45.645Z,99.40
2018-03-23T02:09:13.402Z,99.30
2018-03-23T02:11:41.155Z,99.90
2018-03-23T02:14:08.976Z,99.90
2018-03-23T02:16:36.731Z,99.90
2018-03-23T02:19:04.485Z,99.90
2018-03-23T02:21:32.304Z,99.90
2018-03-23T02:24:00.059Z,99.90
2018-03-23T02:26:27.809Z,99.90
2018-03-23T02:28:55.615Z,99.90
2018-03-23T02:31:24.175Z,99.90
2018-03-23T02:33:51.937Z,99.90
2018-03-23T02:36:19.750Z,99.90
2018-03-23T02:38:47.568Z,99.90
2018-03-23T02:41:15.319Z,99.90
2018-03-23T02:43:43.129Z,99.90
2018-03-23T02:46:10.890Z,99.90
2018-03-23T02:48:38.643Z,99.90
2018-03-23T02:51:06.486Z,99.90
2018-03-23T02:53:34.999Z,99.90
2018-03-23T02:56:02.777Z,99.90
2018-03-23T02:58:30.585Z,99.90
2018-03-23T03:00:58.356Z,99.90
2018-03-23T03:03:26.115Z,99.90
2018-03-23T03:05:54.699Z,99.90
2018-03-23T03:08:23.239Z,99.90
2018-03-23T03:10:51.012Z,99.90
2018-03-23T03:13:18.819Z,99.90
2018-03-23T03:15:46.571Z,99.90
2018-03-23T03:18:15.098Z,99.90
2018-03-23T03:20:42.902Z,99.90
2018-03-23T03:23:11.424Z,99.90
2018-03-23T03:25:39.176Z,99.90
2018-03-23T03:28:06.994Z,99.90
2018-03-23T03:30:34.751Z,99.90
2018-03-23T03:33:02.516Z,99.90
2018-03-23T03:35:30.336Z,99.90
2018-03-23T03:37:58.094Z,99.90
2018-03-23T03:40:25.854Z,99.90
2018-03-23T03:42:53.664Z,99.90
2018-03-23T03:45:21.423Z,99.90
2018-03-23T03:47:49.179Z,99.90
2018-03-23T03:50:17.002Z,99.90
2018-03-23T03:52:44.800Z,99.90
2018-03-23T03:55:12.552Z,99.90
2018-03-23T03:57:40.359Z,99.90
2018-03-23T04:00:08.886Z,99.90
2018-03-23T04:02:36.643Z,99.90
2018-03-23T04:05:04.459Z,99.90
2018-03-23T04:07:32.986Z,99.90
2018-03-23T04:10:00.738Z,99.90
2018-03-23T04:12:28.559Z,99.90
2018-03-23T04:14:56.317Z,99.90
2018-03-23T04:17:24.079Z,99.90
2018-03-23T04:19:51.890Z,99.90
2018-03-23T04:22:19.650Z,99.90
2018-03-23T04:24:47.416Z,99.90
2018-03-23T04:27:15.226Z,99.90
2018-03-23T04:29:42.975Z,99.90
2018-03-23T04:32:10.732Z,99.90
2018-03-23T04:34:38.544Z,99.90
2018-03-23T04:37:06.293Z,99.90
2018-03-23T04:39:34.807Z,99.90
2018-03-23T04:42:02.624Z,99.90
2018-03-23T04:44:31.142Z,99.90
2018-03-23T04:46:58.899Z,99.90
2018-03-23T04:49:26.709Z,99.90
2018-03-23T04:51:54.459Z,99.90
2018-03-23T04:54:22.214Z,99.90
2018-03-23T04:56:50.028Z,99.90
2018-03-23T04:59:18.579Z,99.90
2018-03-23T05:01:46.346Z,99.90
2018-03-23T05:04:14.242Z,99.90
2018-03-23T05:06:42.003Z,99.90
2018-03-23T05:09:09.762Z,99.90
2018-03-23T05:11:37.576Z,99.90
2018-03-23T05:14:05.331Z,99.90
2018-03-23T05:16:33.079Z,99.90
2018-03-23T05:19:00.887Z,99.90
2018-03-23T05:21:28.648Z,99.90
2018-03-23T05:23:56.403Z,99.90
2018-03-23T05:26:24.214Z,99.90
2018-03-23T05:28:51.972Z,99.90
2018-03-23T05:31:19.728Z,99.90
2018-03-23T05:33:47.536Z,99.90
2018-03-23T05:36:15.349Z,99.90
2018-03-23T05:38:43.993Z,99.90
2018-03-23T05:41:11.797Z,99.90
2018-03-23T05:43:39.557Z,99.90
2018-03-23T05:46:07.318Z,99.90
2018-03-23T05:48:35.118Z,99.90
2018-03-23T05:51:02.870Z,99.90
2018-03-23T05:53:30.640Z,99.90
2018-03-23T05:55:59.214Z,99.90
2018-03-23T05:58:26.979Z,99.90
2018-03-23T06:00:54.730Z,99.90
2018-03-23T06:03:22.539Z,99.90
2018-03-23T06:05:50.338Z,99.90
2018-03-23T06:08:18.107Z,99.90
2018-03-23T06:10:45.922Z,99.90
2018-03-23T06:13:13.678Z,99.90
2018-03-23T06:15:41.437Z,99.90
2018-03-23T06:18:09.270Z,99.90
2018-03-23T06:20:37.032Z,99.90
2018-03-23T06:23:04.779Z,99.90
2018-03-23T06:25:32.590Z,99.90
2018-03-23T06:28:00.396Z,99.90
2018-03-23T06:30:28.151Z,99.90
2018-03-23T06:32:55.990Z,99.90
2018-03-23T06:35:23.750Z,99.90
2018-03-23T06:37:51.513Z,99.90
2018-03-23T06:40:19.410Z,99.90
2018-03-23T06:42:47.159Z,99.90
2018-03-23T06:45:15.675Z,99.90
2018-03-23T06:47:43.494Z,99.90
2018-03-23T06:50:12.015Z,99.90
2018-03-23T06:52:39.771Z,99.90
2018-03-23T06:55:07.583Z,99.90
2018-03-23T06:57:35.354Z,99.90
2018-03-23T07:00:03.883Z,99.90
2018-03-23T07:02:31.692Z,99.90
2018-03-23T07:04:59.462Z,99.90
2018-03-23T07:07:27.988Z,99.90
2018-03-23T07:09:55.800Z,99.90
2018-03-23T07:12:24.315Z,99.90
2018-03-23T07:14:52.076Z,99.90
2018-03-23T07:17:19.899Z,99.90
2018-03-23T07:19:47.656Z,99.90
2018-03-23T07:22:15.409Z,99.90
2018-03-23T07:24:43.231Z,99.90
2018-03-23T07:27:10.983Z,99.90
2018-03-23T07:29:38.739Z,99.90
2018-03-23T07:32:06.567Z,99.90
2018-03-23T07:34:34.327Z,99.90
2018-03-23T07:37:02.084Z,99.90
2018-03-23T07:39:29.895Z,99.90
2018-03-23T07:41:57.651Z,99.90
2018-03-23T07:44:25.404Z,99.90
2018-03-23T07:46:53.975Z,99.90
2018-03-23T07:49:22.494Z,99.90
2018-03-23T07:51:50.243Z,99.90
2018-03-23T07:54:18.054Z,99.90
2018-03-23T07:56:45.806Z,99.90
2018-03-23T07:59:13.590Z,99.90
2018-03-23T08:01:42.180Z,99.90
2018-03-23T08:04:10.696Z,99.90
2018-03-23T08:06:38.475Z,99.90
2018-03-23T08:09:06.309Z,99.90
2018-03-23T08:11:34.081Z,99.90
2018-03-23T08:14:01.853Z,99.90
2018-03-23T08:16:29.655Z,99.90
2018-03-23T08:18:57.410Z,99.90
2018-03-23T08:21:25.175Z,99.90
2018-03-23T08:23:52.987Z,99.90
2018-03-23T08:26:20.744Z,99.90
2018-03-23T08:28:48.499Z,99.90
2018-03-23T08:31:16.308Z,99.90
2018-03-23T08:33:44.861Z,99.90
2018-03-23T08:36:12.614Z,99.90
2018-03-23T08:38:40.432Z,99.90
2018-03-23T08:41:08.196Z,99.90
2018-03-23T08:43:35.942Z,99.90
2018-03-23T08:46:03.782Z,99.90
2018-03-23T08:48:31.548Z,99.90
2018-03-23T08:50:59.312Z,99.90
2018-03-23T08:53:27.157Z,99.90
2018-03-23T08:55:54.907Z,99.90
2018-03-23T08:58:22.666Z,99.90
2018-03-23T09:00:50.475Z,99.90
2018-03-23T09:03:18.238Z,99.90
2018-03-23T09:05:45.993Z,99.90
2018-03-23T09:08:13.820Z,99.90
2018-03-23T09:10:41.579Z,99.90
2018-03-23T09:13:09.349Z,99.90
2018-03-23T09:15:37.159Z,99.90
2018-03-23T09:18:04.923Z,99.90
2018-03-23T09:20:32.685Z,99.90
2018-03-23T09:23:00.503Z,99.90
2018-03-23T09:25:28.278Z,99.90
2018-03-23T09:27:56.034Z,99.90
2018-03-23T09:30:23.833Z,99.90
2018-03-23T09:32:51.599Z,99.90
2018-03-23T09:35:19.367Z,99.90
2018-03-23T09:37:47.166Z,99.90
2018-03-23T09:40:14.922Z,99.90
2018-03-23T09:42:42.682Z,99.90
2018-03-23T09:45:10.499Z,99.90
2018-03-23T09:47:38.254Z,99.90
2018-03-23T09:50:06.782Z,99.90
2018-03-23T09:52:34.600Z,99.90
2018-03-23T09:55:03.120Z,99.90
2018-03-23T09:57:31.713Z,99.90
2018-03-23T09:59:59.514Z,99.90
2018-03-23T10:02:27.275Z,99.90
2018-03-23T10:04:55.033Z,99.90
2018-03-23T10:07:22.879Z,99.90
2018-03-23T10:09:50.637Z,99.90
2018-03-23T10:12:18.397Z,99.90
2018-03-23T10:14:46.216Z,99.90
2018-03-23T10:17:13.963Z,99.90
2018-03-23T10:19:41.723Z,99.90
2018-03-23T10:22:09.531Z,99.90
2018-03-23T10:24:37.279Z,99.90
2018-03-23T10:27:05.810Z,99.90
2018-03-23T10:29:33.614Z,99.90
2018-03-23T10:32:01.438Z,99.90
2018-03-23T10:34:29.195Z,99.90
2018-03-23T10:36:56.996Z,99.90
2018-03-23T10:39:24.750Z,99.90
2018-03-23T10:41:52.510Z,99.90
2018-03-23T10:44:20.328Z,99.90
2018-03-23T10:46:48.142Z,99.90
2018-03-23T10:49:15.892Z,99.90
2018-03-23T10:51:43.704Z,99.90
2018-03-23T10:54:11.475Z,99.90
2018-03-23T10:56:39.223Z,99.90
2018-03-23T10:59:07.043Z,99.90
2018-03-23T11:01:37.414Z,99.90
2018-03-23T11:04:05.163Z,99.90
2018-03-23T11:06:33.747Z,99.90
2018-03-23T11:09:01.512Z,99.90
2018-03-23T11:11:29.270Z,99.90
2018-03-23T11:13:57.086Z,99.90
2018-03-23T11:16:24.840Z,99.90
2018-03-23T11:18:52.590Z,99.90
2018-03-23T11:21:20.396Z,99.90
2018-03-23T11:23:48.927Z,99.90
2018-03-23T11:26:16.680Z,99.90
2018-03-23T11:28:44.485Z,99.90
2018-03-23T11:31:12.244Z,99.90
2018-03-23T11:33:40.028Z,99.90
2018-03-23T11:36:08.724Z,99.90
2018-03-23T11:38:37.241Z,99.90
2018-03-23T11:41:05.019Z,99.90
2018-03-23T11:43:32.828Z,99.90
2018-03-23T11:46:01.357Z,99.90
2018-03-23T11:48:29.110Z,99.90
2018-03-23T11:50:56.921Z,99.90
2018-03-23T11:53:25.450Z,99.90
2018-03-23T11:55:53.209Z,99.90
2018-03-23T11:58:21.025Z,99.90
2018-03-23T12:00:49.539Z,99.90
2018-03-23T12:03:17.303Z,99.90
2018-03-23T12:05:45.111Z,99.90
2018-03-23T12:08:12.864Z,99.90
2018-03-23T12:10:40.629Z,99.90
2018-03-23T12:13:08.435Z,99.90
2018-03-23T12:15:36.209Z,99.90
2018-03-23T12:18:03.967Z,99.90
2018-03-23T12:20:31.774Z,99.90
2018-03-23T12:22:59.522Z,99.90
2018-03-23T12:25:27.283Z,99.90
2018-03-23T12:27:55.096Z,99.90
2018-03-23T12:30:23.635Z,99.90
2018-03-23T12:32:51.392Z,99.90
2018-03-23T12:35:19.226Z,99.90
2018-03-23T12:37:46.978Z,99.90
2018-03-23T12:40:14.737Z,99.90
2018-03-23T12:42:42.539Z,99.90
2018-03-23T12:45:10.296Z,99.90
2018-03-23T12:47:38.051Z,99.90
2018-03-23T12:50:05.907Z,99.90
2018-03-23T12:52:33.666Z,99.90
2018-03-23T12:55:01.418Z,99.90
2018-03-23T12:57:29.251Z,99.90
2018-03-23T12:59:57.765Z,99.90
2018-03-23T13:02:25.514Z,99.90
2018-03-23T13:04:53.326Z,99.90
2018-03-23T13:07:21.083Z,99.90
2018-03-23T13:09:48.837Z,99.90
2018-03-23T13:12:16.646Z,99.90
2018-03-23T13:14:45.200Z,99.90
2018-03-23T13:17:12.959Z,99.90
2018-03-23T13:19:40.765Z,99.90
2018-03-23T13:22:08.519Z,99.90
2018-03-23T13:24:37.039Z,99.90
2018-03-23T13:27:04.842Z,99.90
2018-03-23T13:29:32.612Z,99.90
2018-03-23T13:32:01.134Z,99.90
2018-03-23T13:34:28.948Z,99.90
2018-03-23T13:36:56.702Z,99.90
2018-03-23T13:39:24.458Z,99.90
2018-03-23T13:41:52.268Z,99.90
2018-03-23T13:44:20.018Z,99.90
2018-03-23T13:46:48.565Z,99.90
2018-03-23T13:49:16.377Z,99.90
2018-03-23T13:51:44.127Z,99.90
2018-03-23T13:54:11.880Z,99.90
2018-03-23T13:56:40.467Z,99.90
2018-03-23T13:59:14.003Z,99.90
2018-03-23T14:01:41.813Z,99.90
2018-03-23T14:04:10.330Z,99.90
2018-03-23T14:06:38.086Z,99.90
2018-03-23T14:09:05.947Z,99.90
2018-03-23T14:11:33.708Z,99.90
2018-03-23T14:14:01.469Z,99.90
2018-03-23T14:16:29.276Z,99.90
2018-03-23T14:18:57.032Z,99.90
2018-03-23T14:21:24.791Z,99.90
2018-03-23T14:23:52.601Z,99.90
2018-03-23T14:26:21.119Z,99.90
2018-03-23T14:28:48.926Z,99.90
2018-03-23T14:31:17.507Z,99.90
2018-03-23T14:33:46.050Z,99.90
2018-03-23T14:36:13.803Z,99.90
2018-03-23T14:38:41.618Z,99.90
2018-03-23T14:41:10.138Z,99.90
2018-03-23T14:43:37.894Z,99.90
2018-03-23T14:46:05.708Z,99.90
2018-03-23T14:48:33.469Z,99.90
2018-03-23T14:51:01.302Z,99.90
2018-03-23T14:53:29.584Z,99.90
2018-03-23T14:55:57.341Z,99.90
2018-03-23T14:58:27.012Z,99.90
2018-03-23T15:00:55.457Z,99.90
2018-03-23T15:03:24.524Z,99.90
2018-03-23T15:05:53.014Z,99.90
2018-03-23T15:08:20.819Z,99.90
2018-03-23T15:10:48.586Z,99.90
2018-03-23T15:13:16.370Z,99.90
2018-03-23T15:15:44.183Z,99.90
2018-03-23T15:18:12.713Z,99.90
2018-03-23T15:20:40.468Z,99.90
2018-03-23T15:23:08.303Z,99.90
2018-03-23T15:25:36.059Z,99.90
2018-03-23T15:28:04.592Z,99.90
2018-03-23T15:30:32.428Z,99.90
2018-03-23T15:33:00.200Z,99.90
2018-03-23T15:35:27.967Z,99.90
2018-03-23T15:37:56.534Z,99.90
2018-03-23T15:40:24.292Z,99.90
2018-03-23T15:42:52.055Z,99.90
2018-03-23T15:45:19.864Z,99.90
2018-03-23T15:47:47.626Z,99.90
2018-03-23T15:50:15.391Z,99.90
2018-03-23T15:52:43.199Z,99.90
2018-03-23T15:55:10.954Z,99.90
2018-03-23T15:57:38.707Z,99.90
2018-03-23T16:00:06.525Z,99.90
2018-03-23T16:02:34.362Z,99.90
2018-03-23T16:05:02.110Z,99.90
2018-03-23T16:07:29.924Z,99.90
2018-03-23T16:09:57.688Z,99.90
2018-03-23T16:12:25.442Z,99.90
2018-03-23T16:14:53.251Z,99.90
2018-03-23T16:17:21.012Z,99.90
2018-03-23T16:19:48.778Z,99.90
2018-03-23T16:22:16.598Z,99.90
2018-03-23T16:24:44.386Z,99.90
2018-03-23T16:27:12.907Z,99.90
2018-03-23T16:29:40.729Z,99.90
2018-03-23T16:32:09.251Z,99.90
2018-03-23T16:34:37.013Z,99.90
2018-03-23T16:37:05.060Z,99.90
2018-03-23T16:39:32.818Z,99.90
2018-03-23T16:42:00.610Z,99.90
2018-03-23T16:44:28.443Z,99.90
2018-03-23T16:46:56.209Z,99.90
2018-03-23T16:49:23.973Z,99.90
2018-03-23T16:51:51.860Z,99.90
2018-03-23T16:54:19.622Z,99.90
2018-03-23T16:56:47.376Z,99.90
2018-03-23T16:59:15.182Z,99.90
2018-03-23T17:01:42.982Z,99.90
2018-03-23T17:04:10.743Z,99.90
2018-03-23T17:06:38.563Z,99.90
2018-03-23T17:09:06.342Z,99.90
2018-03-23T17:11:34.897Z,99.90
2018-03-23T17:14:03.568Z,99.90
2018-03-23T17:16:31.465Z,99.90
2018-03-23T17:18:59.219Z,99.90
2018-03-23T17:21:27.027Z,99.90
2018-03-23T17:23:54.796Z,99.90
2018-03-23T17:26:22.550Z,99.90
2018-03-23T17:28:50.371Z,99.90
2018-03-23T17:31:18.133Z,99.90
2018-03-23T17:33:45.886Z,99.90
2018-03-23T17:36:13.701Z,99.90
2018-03-23T17:38:41.453Z,99.90
2018-03-23T17:41:09.203Z,99.90
2018-03-23T17:43:37.780Z,99.90
2018-03-23T17:46:06.316Z,99.90
2018-03-23T17:48:34.847Z,99.90
2018-03-23T17:51:03.430Z,99.90
2018-03-23T17:53:31.188Z,99.90
2018-03-23T17:55:59.724Z,99.90
2018-03-23T17:58:27.555Z,99.90
2018-03-23T18:00:55.313Z,99.90
2018-03-23T18:03:23.066Z,99.90
2018-03-23T18:05:51.094Z,99.90
2018-03-23T18:08:18.856Z,99.90
2018-03-23T18:10:46.635Z,99.90
2018-03-23T18:13:14.516Z,99.90
2018-03-23T18:15:43.032Z,99.90
2018-03-23T18:18:10.783Z,99.90
2018-03-23T18:20:38.621Z,99.90
2018-03-23T18:23:06.388Z,99.90
2018-03-23T18:25:34.210Z,99.90
2018-03-23T18:28:02.030Z,99.90
2018-03-23T18:30:32.365Z,99.90
2018-03-23T18:33:00.387Z,99.90
2018-03-23T18:35:28.964Z,99.90
2018-03-23T18:37:57.496Z,99.90
2018-03-23T18:40:25.264Z,99.90
2018-03-23T18:42:53.085Z,99.90
2018-03-23T18:45:20.854Z,99.90
2018-03-23T18:47:48.663Z,99.90
2018-03-23T18:50:16.477Z,99.90
2018-03-23T18:52:44.270Z,99.90
2018-03-23T18:55:12.031Z,99.90
2018-03-23T18:57:39.838Z,99.90
2018-03-23T19:00:08.379Z,99.90
2018-03-23T19:02:36.148Z,99.90
2018-03-23T19:05:04.007Z,99.90
2018-03-23T19:07:31.772Z,99.90
2018-03-23T19:09:59.537Z,99.90
2018-03-23T19:12:27.347Z,99.90
2018-03-23T19:14:55.876Z,99.90
2018-03-23T19:17:23.647Z,99.90
2018-03-23T19:19:51.480Z,99.90
2018-03-23T19:22:19.264Z,99.90
2018-03-23T19:24:47.030Z,99.90
2018-03-23T19:27:14.843Z,99.90
2018-03-23T19:29:42.603Z,99.90
2018-03-23T19:32:10.359Z,99.90
2018-03-23T19:34:38.183Z,99.90
2018-03-23T19:37:05.972Z,99.90
2018-03-23T19:39:33.727Z,99.90
2018-03-23T19:42:01.546Z,99.90
2018-03-23T19:44:29.312Z,99.90
2018-03-23T19:46:57.091Z,99.90
2018-03-23T19:49:24.906Z,99.90
2018-03-23T19:51:52.726Z,99.90
2018-03-23T19:54:20.483Z,99.90
2018-03-23T19:56:48.302Z,99.90
2018-03-23T19:59:16.057Z,99.90
2018-03-23T20:01:43.824Z,99.90
2018-03-23T20:04:11.689Z,99.90
2018-03-23T20:06:39.462Z,99.90
2018-03-23T20:09:07.232Z,99.90
2018-03-23T20:11:35.058Z,99.90
2018-03-23T20:14:08.539Z,99.90
2018-03-23T20:16:36.358Z,99.90
2018-03-23T20:19:04.122Z,99.90
2018-03-23T20:21:31.887Z,99.90
2018-03-23T20:24:05.285Z,99.90
2018-03-23T20:26:33.050Z,99.90
2018-03-23T20:29:00.806Z,99.90
2018-03-23T20:31:34.335Z,99.90
2018-03-23T20:34:02.100Z,99.90
2018-03-23T20:36:30.641Z,99.90
2018-03-23T20:38:58.461Z,99.90
2018-03-23T20:41:26.224Z,99.90
2018-03-23T20:43:54.742Z,99.90
2018-03-23T20:46:22.553Z,99.90
2018-03-23T20:48:51.080Z,99.90
2018-03-23T20:51:18.838Z,99.90
2018-03-23T20:53:46.738Z,99.90
2018-03-23T20:56:14.561Z,99.90
2018-03-23T20:58:42.374Z,99.90
2018-03-23T21:01:10.199Z,99.90
2018-03-23T21:03:37.974Z,99.90
2018-03-23T21:06:05.723Z,99.90
2018-03-23T21:08:37.671Z,99.90
2018-03-23T21:11:17.117Z,99.90
2018-03-23T21:13:44.946Z,99.90
2018-03-23T21:16:12.721Z,99.90
2018-03-23T21:18:40.524Z,99.90
2018-03-23T21:21:08.362Z,99.90
2018-03-23T21:23:36.132Z,99.90
2018-03-23T21:26:04.717Z,99.90
2018-03-23T21:28:33.764Z,99.90
2018-03-23T21:31:02.296Z,99.90
2018-03-23T21:33:30.901Z,99.90
2018-03-23T21:35:58.713Z,99.90
2018-03-23T21:38:26.480Z,99.90
2018-03-23T21:40:54.242Z,99.90
2018-03-23T21:43:22.149Z,99.90
2018-03-23T21:45:49.940Z,99.90
2018-03-23T21:48:18.468Z,99.90
2018-03-23T21:50:46.277Z,99.90
2018-03-23T21:53:14.794Z,99.90
2018-03-23T21:55:42.552Z,99.90
2018-03-23T21:58:10.366Z,99.90
2018-03-23T22:00:38.130Z,99.90
2018-03-23T22:03:05.899Z,99.90
2018-03-23T22:05:34.512Z,99.90
2018-03-23T22:08:02.280Z,99.90
2018-03-23T22:10:30.032Z,99.90
2018-03-23T22:12:57.848Z,99.90
2018-03-23T22:15:25.608Z,99.90
2018-03-23T22:17:53.403Z,99.90
2018-03-23T22:20:21.991Z,99.90
2018-03-23T22:22:49.811Z,99.90
2018-03-23T22:25:17.618Z,99.90
2018-03-23T22:27:45.435Z,99.90
2018-03-23T22:30:13.202Z,99.90
2018-03-23T22:32:40.961Z,99.90
2018-03-23T22:35:08.774Z,99.90
2018-03-23T22:37:36.542Z,99.90
2018-03-23T22:40:04.310Z,99.90
2018-03-23T22:42:32.139Z,99.90
2018-03-23T22:45:00.656Z,99.90
2018-03-23T22:47:28.553Z,99.90
2018-03-23T22:49:56.406Z,99.90
2018-03-23T22:52:24.159Z,99.90
2018-03-23T22:54:54.540Z,99.90
2018-03-23T22:57:23.141Z,99.90
2018-03-23T22:59:51.550Z,99.90
2018-03-23T23:02:19.427Z,99.90
2018-03-23T23:04:47.254Z,99.90
2018-03-23T23:07:15.040Z,99.90
2018-03-23T23:09:43.016Z,99.90
2018-03-23T23:12:11.644Z,99.90
2018-03-23T23:14:39.421Z,99.90
2018-03-23T23:17:07.213Z,99.90
2018-03-23T23:19:35.076Z,99.90
2018-03-23T23:22:02.840Z,99.90
2018-03-23T23:24:30.626Z,99.90
2018-03-23T23:26:58.453Z,99.90
2018-03-23T23:29:27.081Z,99.90
2018-03-23T23:31:55.619Z,99.90
2018-03-23T23:34:23.438Z,99.90
2018-03-23T23:36:51.991Z,99.90
2018-03-23T23:39:19.831Z,99.90
2018-03-23T23:41:48.014Z,99.90
2018-03-23T23:44:15.782Z,99.90
2018-03-23T23:46:43.590Z,99.90
2018-03-23T23:49:11.408Z,99.90
2018-03-23T23:51:39.240Z,99.90
2018-03-23T23:54:06.999Z,99.90
2018-03-23T23:56:34.808Z,99.90
2018-03-23T23:59:03.342Z,99.90
